createdAt,value
2019-06-07T00:02:08.225Z,80.37
2019-06-07T00:04:39.809Z,80.50
2019-06-07T00:07:12.595Z,80.35
2019-06-07T00:09:44.708Z,80.20
2019-06-07T00:12:17.620Z,80.73
2019-06-07T00:14:49.591Z,80.64
2019-06-07T00:17:21.173Z,80.62
2019-06-07T00:19:52.725Z,80.58
2019-06-07T00:22:32.895Z,80.88
2019-06-07T00:24:57.605Z,80.71
2019-06-07T00:27:29.176Z,80.28
2019-06-07T00:30:29.619Z,80.06
2019-06-07T00:32:35.691Z,80.23
2019-06-07T00:35:09.313Z,80.13
2019-06-07T00:37:41.134Z,80.16
2019-06-07T00:40:18.590Z,80.10
2019-06-07T00:42:46.971Z,79.79
2019-06-07T00:45:21.780Z,79.64
2019-06-07T00:47:52.146Z,79.98
2019-06-07T00:50:24.481Z,79.60
2019-06-07T00:53:14.732Z,79.35
2019-06-07T00:55:30.644Z,78.99
2019-06-07T00:58:02.674Z,79.62
2019-06-07T01:00:34.276Z,79.85
2019-06-07T01:03:05.854Z,79.77
2019-06-07T01:05:37.448Z,80.25
2019-06-07T01:08:09.033Z,80.72
2019-06-07T01:10:52.884Z,80.30
2019-06-07T01:13:15.490Z,79.96
2019-06-07T01:15:47.634Z,80.32
2019-06-07T01:18:37.848Z,79.10
2019-06-07T01:20:52.758Z,79.44
2019-06-07T01:23:59.777Z,79.47
2019-06-07T01:25:57.587Z,80.34
2019-06-07T01:28:30.149Z,81.15
2019-06-07T01:31:01.939Z,81.04
2019-06-07T01:33:50.465Z,81.44
2019-06-07T01:36:06.850Z,81.14
2019-06-07T01:38:38.446Z,81.39
2019-06-07T01:41:10.067Z,81.18
2019-06-07T01:43:41.626Z,80.94
2019-06-07T01:46:13.259Z,80.38
2019-06-07T01:48:49.469Z,80.14
2019-06-07T01:51:18.955Z,80.32
2019-06-07T01:54:40.728Z,80.75
2019-06-07T01:56:29.231Z,80.49
2019-06-07T01:58:58.128Z,80.74
2019-06-07T02:01:34.929Z,81.03
2019-06-07T02:04:03.483Z,80.81
2019-06-07T02:06:35.130Z,81.23
2019-06-07T02:09:09.118Z,80.93
2019-06-07T02:11:40.705Z,81.44
2019-06-07T02:14:12.302Z,81.58
2019-06-07T02:16:43.880Z,81.00
2019-06-07T02:19:15.732Z,81.61
2019-06-07T02:21:47.329Z,81.15
2019-06-07T02:24:21.297Z,81.70
2019-06-07T02:26:52.220Z,81.74
2019-06-07T02:29:25.464Z,81.77
2019-06-07T02:31:57.082Z,81.76
2019-06-07T02:34:35.922Z,81.49
2019-06-07T02:37:02.036Z,81.55
2019-06-07T02:39:40.338Z,81.76
2019-06-07T02:42:07.789Z,81.69
2019-06-07T02:44:40.410Z,81.48
2019-06-07T02:47:12.199Z,81.76
2019-06-07T02:49:44.953Z,81.73
2019-06-07T02:52:16.529Z,81.75
2019-06-07T02:54:48.119Z,81.82
2019-06-07T02:57:19.737Z,81.94
2019-06-07T03:00:06.533Z,81.76
2019-06-07T03:02:26.639Z,81.85
2019-06-07T03:04:57.902Z,81.39
2019-06-07T03:07:34.950Z,81.23
2019-06-07T03:10:06.085Z,81.81
2019-06-07T03:12:40.762Z,81.88
2019-06-07T03:15:31.654Z,81.73
2019-06-07T03:17:51.919Z,81.50
2019-06-07T03:20:24.094Z,82.40
2019-06-07T03:22:57.757Z,82.14
2019-06-07T03:25:39.205Z,81.63
2019-06-07T03:28:10.961Z,81.79
2019-06-07T03:30:58.197Z,82.23
2019-06-07T03:33:15.832Z,82.21
2019-06-07T03:35:47.497Z,82.14
2019-06-07T03:38:19.119Z,81.74
2019-06-07T03:40:50.646Z,82.04
2019-06-07T03:43:22.236Z,81.63
2019-06-07T03:45:53.812Z,81.78
2019-06-07T03:48:28.442Z,81.01
2019-06-07T03:51:04.642Z,81.44
2019-06-07T03:53:34.815Z,82.03
2019-06-07T03:56:06.781Z,81.59
2019-06-07T03:58:49.149Z,81.58
2019-06-07T04:01:11.791Z,80.69
2019-06-07T04:03:51.006Z,81.52
2019-06-07T04:06:16.706Z,81.87
2019-06-07T04:08:48.288Z,81.78
2019-06-07T04:11:20.968Z,81.79
2019-06-07T04:13:52.546Z,81.22
2019-06-07T04:16:24.120Z,80.71
2019-06-07T04:18:55.697Z,80.55
2019-06-07T04:21:29.741Z,80.58
2019-06-07T04:24:00.535Z,80.18
2019-06-07T04:26:34.449Z,79.95
2019-06-07T04:29:32.161Z,79.90
2019-06-07T04:31:42.472Z,79.94
2019-06-07T04:34:12.015Z,79.98
2019-06-07T04:36:56.538Z,79.88
2019-06-07T04:39:16.943Z,79.54
2019-06-07T04:41:50.360Z,79.70
2019-06-07T04:44:23.162Z,79.74
2019-06-07T04:46:58.210Z,79.88
2019-06-07T04:49:32.243Z,79.35
2019-06-07T04:52:03.071Z,78.89
2019-06-07T04:54:35.729Z,78.97
2019-06-07T04:57:09.000Z,78.95
2019-06-07T05:00:10.512Z,79.10
2019-06-07T05:02:13.867Z,77.92
2019-06-07T05:04:45.569Z,78.09
2019-06-07T05:07:17.157Z,77.99
2019-06-07T05:09:48.723Z,78.31
2019-06-07T05:12:20.334Z,78.08
2019-06-07T05:14:52.117Z,78.12
2019-06-07T05:17:23.727Z,78.45
2019-06-07T05:19:55.412Z,77.39
2019-06-07T05:22:27.094Z,77.77
2019-06-07T05:24:58.755Z,76.59
2019-06-07T05:27:32.577Z,76.13
2019-06-07T05:30:13.702Z,76.21
2019-06-07T05:32:42.795Z,76.54
2019-06-07T05:35:12.295Z,76.72
2019-06-07T05:37:45.954Z,75.49
2019-06-07T05:40:24.717Z,75.19
2019-06-07T05:42:56.320Z,73.14
2019-06-07T05:45:38.469Z,71.29
2019-06-07T05:48:09.464Z,71.11
2019-06-07T05:50:54.790Z,67.96
2019-06-07T05:53:14.330Z,67.31
2019-06-07T05:55:47.666Z,64.94
2019-06-07T05:58:19.313Z,63.50
2019-06-07T06:00:51.125Z,61.83
2019-06-07T06:03:22.839Z,60.89
2019-06-07T06:05:55.689Z,59.90
2019-06-07T06:08:28.167Z,59.93
2019-06-07T06:10:59.764Z,59.38
2019-06-07T06:13:31.483Z,58.01
2019-06-07T06:16:03.138Z,57.22
2019-06-07T06:18:35.639Z,56.43
2019-06-07T06:21:18.126Z,56.67
2019-06-07T06:23:42.762Z,56.71
2019-06-07T06:26:13.840Z,56.45
2019-06-07T06:28:45.484Z,56.30
2019-06-07T06:31:17.049Z,54.75
2019-06-07T06:33:49.853Z,53.99
2019-06-07T06:36:22.369Z,55.94
2019-06-07T06:38:54.413Z,54.99
2019-06-07T06:41:25.944Z,53.80
2019-06-07T06:43:57.549Z,54.58
2019-06-07T06:46:38.851Z,53.15
2019-06-07T06:49:03.399Z,54.46
2019-06-07T06:51:34.970Z,53.56
2019-06-07T06:54:06.569Z,53.16
2019-06-07T06:56:39.704Z,52.94
2019-06-07T06:59:37.531Z,53.31
2019-06-07T07:01:47.327Z,51.64
2019-06-07T07:04:18.522Z,52.67
2019-06-07T07:06:53.086Z,53.10
2019-06-07T07:09:25.090Z,51.63
2019-06-07T07:12:11.132Z,51.60
2019-06-07T07:14:29.995Z,52.72
2019-06-07T07:17:01.572Z,52.01
2019-06-07T07:19:34.312Z,52.75
2019-06-07T07:22:05.954Z,52.59
2019-06-07T07:24:37.556Z,52.77
2019-06-07T07:27:09.125Z,53.43
2019-06-07T07:29:40.746Z,52.22
2019-06-07T07:32:12.385Z,49.85
2019-06-07T07:34:46.224Z,50.31
2019-06-07T07:37:17.375Z,51.46
2019-06-07T07:39:52.992Z,50.17
2019-06-07T07:42:22.230Z,50.13
2019-06-07T07:44:56.513Z,52.43
2019-06-07T07:47:27.115Z,52.12
2019-06-07T07:49:59.243Z,51.39
2019-06-07T07:52:31.058Z,48.27
2019-06-07T07:55:02.586Z,49.69
2019-06-07T07:57:34.223Z,50.31
2019-06-07T08:00:48.662Z,49.67
2019-06-07T08:02:39.908Z,50.59
2019-06-07T08:05:23.442Z,50.97
2019-06-07T08:07:47.546Z,48.46
2019-06-07T08:10:19.237Z,47.40
2019-06-07T08:13:12.878Z,47.89
2019-06-07T08:15:24.115Z,47.38
2019-06-07T08:18:00.307Z,47.90
2019-06-07T08:20:28.972Z,48.84
2019-06-07T08:23:01.656Z,46.82
2019-06-07T08:25:33.256Z,47.38
2019-06-07T08:28:04.861Z,49.72
2019-06-07T08:30:58.367Z,50.99
2019-06-07T08:33:25.401Z,49.00
2019-06-07T08:36:05.997Z,49.67
2019-06-07T08:38:26.890Z,47.64
2019-06-07T08:40:54.635Z,49.52
2019-06-07T08:43:23.467Z,48.46
2019-06-07T08:46:02.156Z,50.76
2019-06-07T08:48:30.383Z,48.87
2019-06-07T08:51:08.146Z,48.33
2019-06-07T08:53:36.578Z,50.69
2019-06-07T08:56:10.773Z,49.40
2019-06-07T08:58:41.455Z,50.27
2019-06-07T09:01:13.074Z,48.12
2019-06-07T09:03:44.643Z,49.04
2019-06-07T09:07:01.329Z,50.13
2019-06-07T09:08:49.827Z,50.70
2019-06-07T09:11:21.423Z,49.36
2019-06-07T09:13:54.485Z,49.27
2019-06-07T09:16:26.358Z,50.01
2019-06-07T09:18:59.048Z,48.77
2019-06-07T09:21:31.235Z,48.60
2019-06-07T09:24:10.386Z,49.82
2019-06-07T09:26:36.109Z,50.83
2019-06-07T09:29:11.038Z,50.42
2019-06-07T09:31:52.654Z,49.24
2019-06-07T09:34:15.631Z,49.23
2019-06-07T09:36:47.439Z,49.69
2019-06-07T09:39:19.013Z,50.91
2019-06-07T09:41:50.695Z,48.61
2019-06-07T09:44:26.032Z,50.17
2019-06-07T09:47:12.783Z,49.68
2019-06-07T09:49:32.464Z,50.72
2019-06-07T09:52:06.834Z,52.53
2019-06-07T09:55:06.126Z,50.48
2019-06-07T09:57:16.701Z,49.37
2019-06-07T09:59:42.537Z,50.81
2019-06-07T10:02:14.109Z,51.20
2019-06-07T10:04:46.103Z,48.62
2019-06-07T10:07:31.441Z,49.65
2019-06-07T10:10:17.351Z,49.16
2019-06-07T10:12:24.253Z,49.83
2019-06-07T10:14:55.930Z,50.14
2019-06-07T10:17:27.502Z,49.88
2019-06-07T10:20:00.461Z,50.42
2019-06-07T10:22:32.413Z,50.63
2019-06-07T10:25:04.395Z,50.04
2019-06-07T10:27:36.050Z,50.09
2019-06-07T10:30:08.647Z,50.18
2019-06-07T10:32:40.233Z,50.47
2019-06-07T10:35:15.993Z,49.94
2019-06-07T10:37:45.500Z,49.60
2019-06-07T10:40:18.693Z,49.49
2019-06-07T10:42:50.285Z,51.87
2019-06-07T10:45:21.881Z,50.78
2019-06-07T10:47:53.523Z,50.61
2019-06-07T10:50:25.374Z,51.21
2019-06-07T10:52:56.981Z,51.37
2019-06-07T10:55:28.589Z,50.15
2019-06-07T10:58:00.243Z,51.05
2019-06-07T11:00:32.023Z,50.74
2019-06-07T11:03:03.701Z,50.88
2019-06-07T11:05:35.294Z,50.19
2019-06-07T11:08:07.993Z,50.47
2019-06-07T11:10:39.700Z,50.70
2019-06-07T11:13:12.450Z,50.14
2019-06-07T11:15:44.181Z,52.14
2019-06-07T11:18:15.708Z,51.29
2019-06-07T11:20:47.323Z,48.89
2019-06-07T11:23:18.937Z,51.17
2019-06-07T11:25:50.521Z,50.74
2019-06-07T11:28:22.288Z,49.63
2019-06-07T11:30:53.906Z,49.27
2019-06-07T11:33:25.462Z,49.49
2019-06-07T11:35:57.047Z,48.71
2019-06-07T11:38:28.686Z,47.94
2019-06-07T11:41:00.276Z,49.20
2019-06-07T11:43:31.918Z,49.43
2019-06-07T11:46:03.529Z,49.15
2019-06-07T11:48:35.111Z,50.52
2019-06-07T11:51:06.791Z,49.43
2019-06-07T11:53:38.306Z,48.13
2019-06-07T11:56:10.353Z,49.35
2019-06-07T11:58:41.991Z,49.59
2019-06-07T12:01:14.907Z,49.70
2019-06-07T12:03:46.891Z,49.23
2019-06-07T12:06:18.441Z,50.96
2019-06-07T12:08:50.047Z,51.21
2019-06-07T12:11:21.607Z,48.77
2019-06-07T12:13:53.609Z,49.10
2019-06-07T12:16:25.166Z,50.09
2019-06-07T12:18:56.745Z,48.68
2019-06-07T12:21:28.332Z,47.61
2019-06-07T12:23:59.907Z,48.36
2019-06-07T12:26:31.653Z,47.74
2019-06-07T12:29:03.253Z,48.50
2019-06-07T12:31:34.934Z,47.84
2019-06-07T12:34:06.637Z,47.54
2019-06-07T12:36:38.254Z,47.59
2019-06-07T12:39:09.864Z,49.84
2019-06-07T12:41:41.450Z,48.81
2019-06-07T12:44:14.508Z,47.18
2019-06-07T12:46:46.214Z,48.64
2019-06-07T12:49:19.124Z,47.07
2019-06-07T12:51:50.710Z,48.54
2019-06-07T12:54:23.730Z,47.31
2019-06-07T12:56:55.563Z,48.62
2019-06-07T12:59:27.134Z,47.45
2019-06-07T13:02:02.219Z,47.78
2019-06-07T13:04:32.019Z,47.97
2019-06-07T13:07:03.631Z,48.58
2019-06-07T13:09:36.153Z,47.11
2019-06-07T13:12:08.111Z,46.31
2019-06-07T13:14:39.696Z,48.50
2019-06-07T13:17:11.276Z,46.50
2019-06-07T13:19:42.873Z,47.22
2019-06-07T13:22:14.471Z,46.90
2019-06-07T13:24:46.053Z,46.05
2019-06-07T13:27:18.274Z,47.98
2019-06-07T13:29:50.032Z,46.60
2019-06-07T13:32:21.714Z,47.59
2019-06-07T13:34:53.253Z,48.09
2019-06-07T13:37:25.490Z,46.80
2019-06-07T13:39:57.199Z,45.65
2019-06-07T13:42:28.820Z,46.02
2019-06-07T13:45:00.384Z,46.14
2019-06-07T13:47:32.016Z,45.88
2019-06-07T13:50:03.619Z,47.27
2019-06-07T13:52:35.230Z,46.21
2019-06-07T13:55:07.747Z,45.36
2019-06-07T13:57:39.402Z,45.62
2019-06-07T14:00:11.833Z,45.37
2019-06-07T14:02:43.499Z,44.33
2019-06-07T14:05:15.694Z,44.84
2019-06-07T14:07:47.317Z,45.43
2019-06-07T14:10:19.417Z,46.59
2019-06-07T14:12:51.073Z,45.40
2019-06-07T14:15:24.368Z,44.99
2019-06-07T14:17:56.384Z,45.45
2019-06-07T14:20:32.442Z,45.00
2019-06-07T14:23:01.263Z,42.98
2019-06-07T14:25:32.827Z,44.23
2019-06-07T14:28:10.925Z,44.99
2019-06-07T14:30:37.738Z,44.67
2019-06-07T14:33:09.345Z,45.13
2019-06-07T14:35:40.939Z,44.76
2019-06-07T14:38:12.537Z,45.88
2019-06-07T14:40:44.132Z,44.17
2019-06-07T14:43:16.835Z,44.60
2019-06-07T14:45:48.434Z,44.51
2019-06-07T14:48:20.081Z,43.37
2019-06-07T14:50:51.679Z,44.62
2019-06-07T14:53:24.503Z,43.75
2019-06-07T14:55:57.519Z,45.01
2019-06-07T14:58:29.461Z,42.82
2019-06-07T15:01:01.118Z,44.00
2019-06-07T15:03:32.845Z,44.15
2019-06-07T15:06:04.441Z,45.29
2019-06-07T15:08:36.051Z,43.74
2019-06-07T15:11:07.624Z,45.29
2019-06-07T15:13:39.880Z,45.68
2019-06-07T15:16:11.662Z,45.58
2019-06-07T15:18:47.367Z,43.80
2019-06-07T15:21:19.025Z,44.47
2019-06-07T15:23:50.695Z,43.91
2019-06-07T15:26:22.284Z,45.34
2019-06-07T15:28:53.962Z,46.14
2019-06-07T15:31:25.635Z,46.14
2019-06-07T15:33:58.842Z,45.43
2019-06-07T15:36:30.447Z,45.80
2019-06-07T15:39:06.912Z,45.28
2019-06-07T15:41:39.772Z,44.84
2019-06-07T15:44:11.636Z,44.72
2019-06-07T15:46:44.271Z,45.61
2019-06-07T15:49:17.076Z,45.70
2019-06-07T15:51:48.649Z,44.86
2019-06-07T15:54:20.226Z,45.84
2019-06-07T15:56:53.305Z,45.60
2019-06-07T15:59:25.042Z,44.92
2019-06-07T16:01:56.637Z,45.33
2019-06-07T16:04:28.246Z,46.20
2019-06-07T16:06:59.904Z,45.93
2019-06-07T16:09:32.421Z,46.66
2019-06-07T16:12:04.195Z,45.83
2019-06-07T16:14:36.951Z,46.26
2019-06-07T16:17:08.579Z,45.50
2019-06-07T16:19:43.573Z,45.48
2019-06-07T16:22:13.492Z,46.05
2019-06-07T16:24:45.176Z,45.88
2019-06-07T16:27:16.857Z,45.75
2019-06-07T16:29:48.472Z,45.93
2019-06-07T16:32:20.114Z,45.72
2019-06-07T16:34:51.741Z,45.29
2019-06-07T16:37:23.436Z,46.50
2019-06-07T16:39:55.042Z,45.11
2019-06-07T16:42:26.737Z,46.68
2019-06-07T16:44:58.329Z,46.71
2019-06-07T16:47:29.943Z,46.64
2019-06-07T16:50:01.576Z,47.01
2019-06-07T16:52:33.154Z,46.90
2019-06-07T16:55:04.904Z,56.96
2019-06-07T16:57:36.835Z,77.73
2019-06-07T17:00:09.590Z,93.48
2019-06-07T17:02:42.245Z,97.41
2019-06-07T17:05:14.337Z,98.02
2019-06-07T17:07:46.950Z,96.79
2019-06-07T17:10:19.324Z,91.15
2019-06-07T17:12:51.104Z,91.73
2019-06-07T17:15:23.981Z,91.96
2019-06-07T17:17:55.578Z,90.68
2019-06-07T17:20:27.331Z,93.39
2019-06-07T17:22:59.014Z,92.14
2019-06-07T17:25:30.783Z,93.58
2019-06-07T17:28:02.445Z,92.34
2019-06-07T17:30:34.176Z,94.96
2019-06-07T17:33:06.017Z,94.07
2019-06-07T17:35:37.780Z,95.83
2019-06-07T17:38:09.458Z,94.05
2019-06-07T17:40:43.283Z,94.50
2019-06-07T17:43:15.345Z,88.94
2019-06-07T17:45:47.521Z,86.11
2019-06-07T17:48:19.350Z,86.35
2019-06-07T17:50:52.791Z,84.54
2019-06-07T17:53:24.623Z,79.72
2019-06-07T17:55:56.336Z,79.18
2019-06-07T17:58:28.060Z,78.73
2019-06-07T18:00:59.703Z,76.02
2019-06-07T18:03:31.988Z,72.89
2019-06-07T18:06:04.910Z,73.09
2019-06-07T18:08:37.221Z,73.20
2019-06-07T18:11:08.814Z,72.75
2019-06-07T18:13:40.443Z,72.58
2019-06-07T18:16:12.027Z,71.71
2019-06-07T18:18:44.480Z,72.40
2019-06-07T18:21:16.321Z,70.05
2019-06-07T18:23:50.273Z,68.67
2019-06-07T18:26:21.979Z,69.16
2019-06-07T18:28:54.700Z,68.78
2019-06-07T18:31:26.413Z,68.17
2019-06-07T18:33:59.237Z,68.20
2019-06-07T18:36:31.014Z,66.68
2019-06-07T18:39:02.886Z,66.47
2019-06-07T18:41:36.142Z,64.60
2019-06-07T18:44:20.743Z,66.51
2019-06-07T18:46:41.089Z,63.48
2019-06-07T18:49:12.666Z,65.25
2019-06-07T18:51:47.463Z,64.29
2019-06-07T18:54:19.192Z,66.78
2019-06-07T18:56:50.828Z,64.52
2019-06-07T18:59:22.390Z,64.00
2019-06-07T19:01:54.007Z,63.62
2019-06-07T19:04:31.122Z,62.91
2019-06-07T19:07:02.708Z,63.23
2019-06-07T19:09:34.413Z,63.97
2019-06-07T19:12:06.072Z,62.07
2019-06-07T19:14:37.848Z,61.37
2019-06-07T19:17:09.419Z,62.92
2019-06-07T19:19:41.051Z,62.95
2019-06-07T19:22:12.670Z,61.82
2019-06-07T19:24:44.372Z,60.62
2019-06-07T19:27:15.983Z,60.48
2019-06-07T19:29:47.583Z,60.87
2019-06-07T19:32:19.244Z,59.04
2019-06-07T19:34:51.155Z,59.60
2019-06-07T19:37:22.849Z,60.84
2019-06-07T19:39:55.605Z,61.79
2019-06-07T19:42:27.631Z,60.87
2019-06-07T19:45:24.727Z,61.04
2019-06-07T19:47:32.734Z,59.51
2019-06-07T19:50:04.866Z,60.89
2019-06-07T19:52:36.461Z,60.31
2019-06-07T19:55:10.207Z,61.82
2019-06-07T19:57:42.360Z,62.19
2019-06-07T20:00:15.463Z,62.71
2019-06-07T20:02:47.175Z,63.56
2019-06-07T20:05:24.307Z,61.59
2019-06-07T20:07:56.447Z,62.01
2019-06-07T20:10:29.745Z,61.71
2019-06-07T20:13:02.858Z,61.96
2019-06-07T20:15:34.592Z,61.35
2019-06-07T20:18:07.568Z,62.46
2019-06-07T20:20:39.413Z,60.31
2019-06-07T20:23:11.107Z,61.22
2019-06-07T20:25:42.760Z,60.51
2019-06-07T20:28:14.387Z,61.01
2019-06-07T20:30:47.427Z,60.53
2019-06-07T20:33:19.034Z,61.17
2019-06-07T20:35:50.665Z,60.58
2019-06-07T20:38:22.486Z,60.17
2019-06-07T20:40:54.190Z,60.45
2019-06-07T20:43:25.758Z,61.75
2019-06-07T20:46:00.472Z,60.13
2019-06-07T20:48:31.171Z,60.75
2019-06-07T20:51:02.975Z,61.55
2019-06-07T20:53:35.949Z,60.65
2019-06-07T20:56:08.988Z,61.04
2019-06-07T20:58:41.844Z,61.40
2019-06-07T21:01:13.448Z,60.61
2019-06-07T21:03:45.101Z,60.99
2019-06-07T21:06:16.688Z,60.50
2019-06-07T21:08:48.304Z,61.23
2019-06-07T21:11:20.017Z,63.14
2019-06-07T21:13:51.964Z,62.72
2019-06-07T21:16:25.033Z,63.81
2019-06-07T21:18:56.681Z,63.70
2019-06-07T21:21:28.285Z,63.32
2019-06-07T21:24:00.512Z,63.77
2019-06-07T21:26:32.325Z,64.24
2019-06-07T21:29:04.894Z,64.89
2019-06-07T21:31:36.604Z,65.85
2019-06-07T21:34:11.006Z,66.11
2019-06-07T21:36:41.542Z,65.50
2019-06-07T21:39:13.211Z,66.07
2019-06-07T21:41:44.846Z,64.85
2019-06-07T21:44:16.482Z,65.38
2019-06-07T21:46:48.108Z,65.68
2019-06-07T21:49:19.727Z,67.29
2019-06-07T21:51:51.339Z,68.15
2019-06-07T21:54:22.976Z,65.37
2019-06-07T21:56:54.608Z,65.28
2019-06-07T21:59:26.239Z,64.46
2019-06-07T22:01:57.821Z,66.06
2019-06-07T22:04:29.430Z,63.85
2019-06-07T22:07:01.007Z,65.56
2019-06-07T22:09:32.719Z,70.20
2019-06-07T22:12:04.516Z,70.37
2019-06-07T22:14:36.374Z,65.99
2019-06-07T22:17:08.248Z,66.39
2019-06-07T22:19:39.826Z,66.54
2019-06-07T22:22:12.816Z,65.43
2019-06-07T22:24:44.595Z,66.87
2019-06-07T22:27:17.617Z,67.17
2019-06-07T22:29:49.311Z,69.24
2019-06-07T22:32:20.932Z,68.94
2019-06-07T22:34:52.532Z,71.18
2019-06-07T22:37:24.108Z,71.76
2019-06-07T22:39:56.786Z,71.75
2019-06-07T22:42:28.386Z,72.76
2019-06-07T22:45:00.442Z,72.71
2019-06-07T22:47:32.031Z,74.60
2019-06-07T22:50:03.699Z,73.28
2019-06-07T22:52:35.297Z,73.63
2019-06-07T22:55:08.134Z,73.38
2019-06-07T22:57:55.801Z,72.01
2019-06-07T23:00:28.770Z,71.48
2019-06-07T23:03:00.349Z,71.41
2019-06-07T23:05:31.933Z,72.00
2019-06-07T23:08:03.640Z,70.92
2019-06-07T23:10:35.209Z,72.29
2019-06-07T23:13:06.791Z,72.66
2019-06-07T23:15:38.388Z,72.29
2019-06-07T23:18:09.942Z,72.76
2019-06-07T23:20:41.515Z,71.33
2019-06-07T23:23:13.102Z,71.29
2019-06-07T23:25:44.737Z,71.18
2019-06-07T23:28:16.641Z,72.08
2019-06-07T23:30:48.278Z,70.97
2019-06-07T23:33:21.031Z,70.47
2019-06-07T23:35:52.676Z,70.64
2019-06-07T23:38:24.281Z,71.22
2019-06-07T23:40:55.856Z,71.84
2019-06-07T23:43:27.533Z,73.98
2019-06-07T23:45:59.175Z,74.16
2019-06-07T23:48:30.878Z,73.99
2019-06-07T23:51:02.503Z,73.54
2019-06-07T23:53:35.075Z,75.02
2019-06-07T23:56:06.652Z,75.74
2019-06-07T23:58:38.307Z,76.09
